메인 페이지
METAR-TAF:

METAR-TAF

공항 :

Fort Smith, 아칸소, 미국

위도: 35-20-01N, 경도: 094-21-54W, 고도: 142m

현재 날씨관측

예보는 50분 전, 10:53시(UTC)에 발표되었습니다.
7kt
온도 9°C
습도 100%
기압 1016 hPa
시정: 12.9km
고도 300ft 상공 흐림

METAR: KFSM 281053Z 10007KT 8SM OVC003 09/09 A2999 RMK AO2 LTG DSNT W SLP156 T00940089

시각: 06:43 (11:43 UTC)

예보

예보는 19분 전, 11:24시(UTC)에 발표되었습니다.
예보 대상 시간: 28일 12시부터 29일 12시까지 (UTC)
7kt
시정: 8.0km
고도 300ft 상공 흐림
비, 박무
일시적
28일 12시부터 28일 16시까지 (UTC)
시정: 1.6km
고도 200ft 상공 흐림, 적란운.
뇌우, 비
28일 1600시부터 (UTC)
동북동5kt
시정: 4.8km
고도 700ft 상공 흐림
일시적
28일 16시부터 28일 20시까지 (UTC)
시정: 3.2km
고도 300ft 상공 흐림, 적란운.
뇌우, 비, 박무
28일 2000시부터 (UTC)
동북동6kt
시정: 4.8km
고도 500ft 상공 흐림
29일 0200시부터 (UTC)
7kt
시정: 6.4km
고도 500ft 상공 흐림
박무
확률 30%
29일 02시부터 29일 06시까지 (UTC)
시정: 3.2km
고도 300ft 상공 흐림
약한비, 이슬비, 박무
29일 0600시부터 (UTC)
5kt
시정: 4.8km
고도 400ft 상공 흐림
약한이슬비, 박무

TAF: KFSM 281124Z 2812/2912 10007KT 5SM RA BR OVC003 TEMPO 2812/2816 1SM TSRA OVC002CB FM281600 06005KT 3SM RA OVC007 TEMPO 2816/2820 2SM TSRA BR OVC003CB FM282000 07006KT 3SM RA OVC005 FM290200 08007KT 4SM BR OVC005 PROB30 2902/2906 2SM -RADZ BR OVC003 FM290600 09005KT 3SM -DZ BR OVC004

4,000개 이상의 공항 관측 자료 및 예보 (METAR 및 TAF 보고).

지도상에서 검색 가능한 기상관측소가 노란 점과 빨간 점으로 표시되어 있습니다.

기상관측소 명을 보려면 표시 위로 마우스를 이동하세요.

날씨 관측과 예보를 보려면 클릭하세요.

지도 변경 : 확대하려면 엑스 표시가 있는 녹색 버튼, 축소하려면 빼기 표시가 있는 녹색 버튼, 다음 페이지의 지도를 보려면 녹색 화살표를 클릭하세요.


METAR-TAF: